createdAt,value
2022-09-15T00:00:12.053Z,6.78
2022-09-15T00:02:42.985Z,8.52
2022-09-15T00:05:14.472Z,6.10
2022-09-15T00:07:45.510Z,9.05
2022-09-15T00:10:19.185Z,8.05
2022-09-15T00:12:49.991Z,7.82
2022-09-15T00:15:21.508Z,8.45
2022-09-15T00:17:54.438Z,9.35
2022-09-15T00:20:26.388Z,9.63
2022-09-15T00:22:58.112Z,5.43
2022-09-15T00:25:31.574Z,7.03
2022-09-15T00:28:02.551Z,7.45
2022-09-15T00:30:33.291Z,10.63
2022-09-15T00:33:04.216Z,5.75
2022-09-15T00:35:34.980Z,7.18
2022-09-15T00:38:05.744Z,8.75
2022-09-15T00:40:47.754Z,5.72
2022-09-15T00:43:20.628Z,8.85
2022-09-15T00:45:51.667Z,7.38
2022-09-15T00:48:25.482Z,5.35
2022-09-15T00:51:00.605Z,4.43
2022-09-15T00:53:33.658Z,4.43
2022-09-15T00:56:09.720Z,4.90
2022-09-15T00:58:47.310Z,5.35
2022-09-15T01:01:19.504Z,5.25
2022-09-15T01:03:50.201Z,5.47
2022-09-15T01:06:28.510Z,5.65
2022-09-15T01:09:05.212Z,5.63
2022-09-15T01:11:39.121Z,3.67
2022-09-15T01:14:09.882Z,4.18
2022-09-15T01:16:50.731Z,4.57
2022-09-15T01:19:55.310Z,5.18
2022-09-15T01:22:38.662Z,3.17
2022-09-15T01:25:22.314Z,5.90
2022-09-15T01:28:16.785Z,5.70
2022-09-15T01:30:56.455Z,2.70
2022-09-15T01:33:35.693Z,3.08
2022-09-15T01:36:14.768Z,2.80
2022-09-15T01:38:53.227Z,3.55
2022-09-15T01:41:30.638Z,2.60
2022-09-15T01:44:08.214Z,2.40
2022-09-15T01:46:47.241Z,5.68
2022-09-15T01:49:23.603Z,4.13
2022-09-15T01:51:55.887Z,2.50
2022-09-15T01:54:30.869Z,6.35
2022-09-15T01:57:01.749Z,5.60
2022-09-15T01:59:33.084Z,5.35
2022-09-15T02:02:10.970Z,6.30
2022-09-15T02:04:48.975Z,4.75
2022-09-15T02:07:32.137Z,4.65
2022-09-15T02:10:11.748Z,2.58
2022-09-15T02:12:50.970Z,5.15
2022-09-15T02:15:29.533Z,5.15
2022-09-15T02:18:06.617Z,4.75
2022-09-15T02:20:49.574Z,4.20
2022-09-15T02:23:27.031Z,5.13
2022-09-15T02:26:06.015Z,4.47
2022-09-15T02:28:39.899Z,5.50
2022-09-15T02:31:14.577Z,2.80
2022-09-15T02:33:52.680Z,4.03
2022-09-15T02:36:24.813Z,4.18
2022-09-15T02:39:01.323Z,5.65
2022-09-15T02:41:32.443Z,2.38
2022-09-15T02:44:03.857Z,4.40
2022-09-15T02:46:35.062Z,2.22
2022-09-15T02:49:08.854Z,6.13
2022-09-15T02:51:39.806Z,5.38
2022-09-15T02:54:11.390Z,5.78
2022-09-15T02:56:42.280Z,6.18
2022-09-15T02:59:13.134Z,6.50
2022-09-15T03:01:45.225Z,6.50
2022-09-15T03:04:18.607Z,6.28
2022-09-15T03:06:49.372Z,5.85
2022-09-15T03:09:20.102Z,4.05
2022-09-15T03:11:50.852Z,6.40
2022-09-15T03:14:21.558Z,6.30
2022-09-15T03:16:52.323Z,6.40
2022-09-15T03:19:25.692Z,5.93
2022-09-15T03:21:56.535Z,5.68
2022-09-15T03:24:27.245Z,5.60
2022-09-15T03:26:57.990Z,5.50
2022-09-15T03:29:28.891Z,5.65
2022-09-15T03:32:00.014Z,6.35
2022-09-15T03:34:33.408Z,6.32
2022-09-15T03:37:04.185Z,6.50
2022-09-15T03:39:35.269Z,6.60
2022-09-15T03:42:06.222Z,6.30
2022-09-15T03:44:37.241Z,6.20
2022-09-15T03:47:08.383Z,6.22
2022-09-15T03:49:42.073Z,6.07
2022-09-15T03:52:13.039Z,5.32
2022-09-15T03:54:44.085Z,3.60
2022-09-15T03:57:14.806Z,5.50
2022-09-15T03:59:45.647Z,6.28
2022-09-15T04:02:16.523Z,6.82
2022-09-15T04:04:50.306Z,5.72
2022-09-15T04:07:21.043Z,6.95
2022-09-15T04:09:51.833Z,6.32
2022-09-15T04:12:22.556Z,6.13
2022-09-15T04:14:54.026Z,4.72
2022-09-15T04:17:24.904Z,6.40
2022-09-15T04:19:58.430Z,5.90
2022-09-15T04:22:29.133Z,6.47
2022-09-15T04:24:59.933Z,6.55
2022-09-15T04:27:32.370Z,6.32
2022-09-15T04:30:03.363Z,6.15
2022-09-15T04:32:35.935Z,6.45
2022-09-15T04:35:11.207Z,6.88
2022-09-15T04:37:42.123Z,6.85
2022-09-15T04:40:13.773Z,6.68
2022-09-15T04:42:44.538Z,6.80
2022-09-15T04:45:15.422Z,6.78
2022-09-15T04:47:48.607Z,7.30
2022-09-15T04:50:22.108Z,6.18
2022-09-15T04:52:52.973Z,6.90
2022-09-15T04:55:23.930Z,7.80
2022-09-15T04:57:56.007Z,7.57
2022-09-15T05:00:27.475Z,2.72
2022-09-15T05:02:58.656Z,2.30
2022-09-15T05:05:32.353Z,8.43
2022-09-15T05:08:04.098Z,7.03
2022-09-15T05:10:34.961Z,3.55
2022-09-15T05:13:05.798Z,6.75
2022-09-15T05:15:36.753Z,8.25
2022-09-15T05:18:08.974Z,1.75
2022-09-15T05:20:42.770Z,1.73
2022-09-15T05:23:13.654Z,6.03
2022-09-15T05:25:44.495Z,3.70
2022-09-15T05:28:15.376Z,1.92
2022-09-15T05:30:46.502Z,7.05
2022-09-15T05:33:17.570Z,6.72
2022-09-15T05:35:57.767Z,8.88
2022-09-15T05:38:32.353Z,8.93
2022-09-15T05:41:06.145Z,8.52
2022-09-15T05:43:38.732Z,2.40
2022-09-15T05:46:10.778Z,4.10
2022-09-15T05:48:41.772Z,6.47
2022-09-15T05:51:15.889Z,2.78
2022-09-15T05:53:46.826Z,5.47
2022-09-15T05:56:19.250Z,5.70
2022-09-15T05:58:51.330Z,9.00
2022-09-15T06:01:24.941Z,9.07
2022-09-15T06:03:56.949Z,4.75
2022-09-15T06:06:30.786Z,8.88
2022-09-15T06:09:03.043Z,9.38
2022-09-15T06:11:35.164Z,10.27
2022-09-15T06:14:07.797Z,12.77
2022-09-15T06:16:39.234Z,9.73
2022-09-15T06:19:11.321Z,5.03
2022-09-15T06:21:44.928Z,10.63
2022-09-15T06:24:16.270Z,9.50
2022-09-15T06:26:47.603Z,10.25
2022-09-15T06:29:18.404Z,6.72
2022-09-15T06:31:49.445Z,8.00
2022-09-15T06:34:21.190Z,4.60
2022-09-15T06:36:55.067Z,3.05
2022-09-15T06:39:26.065Z,2.28
2022-09-15T06:42:05.895Z,3.33
2022-09-15T06:44:38.655Z,2.33
2022-09-15T06:47:10.953Z,3.45
2022-09-15T06:49:42.054Z,2.80
2022-09-15T06:52:16.289Z,2.83
2022-09-15T06:54:47.620Z,3.25
2022-09-15T06:57:18.848Z,8.52
2022-09-15T06:59:49.984Z,2.22
2022-09-15T07:02:21.054Z,2.05
2022-09-15T07:04:52.825Z,6.55
2022-09-15T07:07:26.489Z,8.95
2022-09-15T07:09:57.231Z,4.82
2022-09-15T07:12:28.308Z,2.35
2022-09-15T07:14:59.071Z,8.05
2022-09-15T07:17:30.363Z,2.15
2022-09-15T07:20:02.435Z,5.93
2022-09-15T07:22:36.184Z,3.20
2022-09-15T07:25:07.879Z,4.75
2022-09-15T07:27:38.934Z,6.68
2022-09-15T07:30:10.901Z,7.68
2022-09-15T07:32:41.815Z,2.58
2022-09-15T07:35:13.357Z,2.53
2022-09-15T07:37:48.614Z,2.30
2022-09-15T07:40:20.380Z,2.60
2022-09-15T07:42:51.520Z,4.82
2022-09-15T07:45:22.522Z,2.75
2022-09-15T07:47:53.655Z,2.55
2022-09-15T07:50:24.419Z,3.95
2022-09-15T07:52:58.875Z,2.28
2022-09-15T07:55:30.615Z,10.07
2022-09-15T07:58:01.861Z,3.90
2022-09-15T08:00:32.987Z,3.40
2022-09-15T08:03:03.880Z,6.00
2022-09-15T08:05:38.709Z,7.20
2022-09-15T08:08:13.826Z,9.80
2022-09-15T08:10:45.789Z,4.90
2022-09-15T08:13:16.675Z,6.07
2022-09-15T08:15:47.505Z,9.60
2022-09-15T08:18:18.706Z,3.00
2022-09-15T08:20:50.206Z,4.15
2022-09-15T08:23:23.809Z,2.55
2022-09-15T08:25:54.878Z,6.35
2022-09-15T08:28:26.625Z,4.78
2022-09-15T08:31:03.325Z,3.10
2022-09-15T08:33:34.259Z,2.90
2022-09-15T08:36:07.532Z,3.55
2022-09-15T08:38:43.182Z,2.10
2022-09-15T08:41:18.344Z,2.22
2022-09-15T08:43:55.057Z,1.77
2022-09-15T08:46:30.862Z,1.88
2022-09-15T08:49:09.762Z,2.00
2022-09-15T08:51:46.439Z,4.60
2022-09-15T08:54:25.785Z,6.05
2022-09-15T08:56:58.132Z,5.85
2022-09-15T08:59:34.999Z,2.60
2022-09-15T09:05:03.491Z,2.15
2022-09-15T09:07:54.998Z,2.75
2022-09-15T09:10:41.918Z,1.95
2022-09-15T09:13:26.217Z,1.75
2022-09-15T09:16:12.734Z,1.83
2022-09-15T09:19:04.904Z,3.07
2022-09-15T09:21:39.180Z,4.45
2022-09-15T09:24:18.262Z,2.05
2022-09-15T09:26:56.570Z,6.70
2022-09-15T09:29:36.021Z,5.78
2022-09-15T09:32:13.308Z,5.88
2022-09-15T09:34:49.759Z,3.28
2022-09-15T09:37:21.303Z,2.45
2022-09-15T09:39:52.497Z,2.28
2022-09-15T09:42:35.122Z,2.47
2022-09-15T09:45:07.666Z,3.97
2022-09-15T09:47:39.497Z,2.13
2022-09-15T09:50:44.054Z,3.47
2022-09-15T09:53:30.181Z,2.85
2022-09-15T09:56:20.601Z,3.60
2022-09-15T09:58:52.231Z,2.00
2022-09-15T10:01:26.318Z,2.47
2022-09-15T10:04:15.502Z,2.22
2022-09-15T10:06:49.504Z,2.63
2022-09-15T10:09:22.527Z,2.50
2022-09-15T10:11:57.845Z,2.50
2022-09-15T10:14:32.114Z,2.92
2022-09-15T10:17:05.487Z,2.67
2022-09-15T10:19:47.154Z,1.80
2022-09-15T10:22:29.552Z,2.60
2022-09-15T10:25:00.770Z,3.60
2022-09-15T10:27:34.635Z,2.15
2022-09-15T10:30:21.340Z,2.63
2022-09-15T10:32:52.440Z,2.60
2022-09-15T10:35:24.430Z,2.40
2022-09-15T10:38:07.067Z,2.10
2022-09-15T10:40:47.294Z,3.60
2022-09-15T10:43:33.460Z,2.10
2022-09-15T10:46:12.246Z,2.80
2022-09-15T10:49:00.205Z,3.67
2022-09-15T10:51:56.496Z,2.40
2022-09-15T10:54:49.125Z,4.57
2022-09-15T10:57:38.755Z,2.58
2022-09-15T11:00:15.417Z,2.47
2022-09-15T11:03:25.650Z,2.22
2022-09-15T11:06:09.360Z,5.40
2022-09-15T11:09:02.051Z,2.90
2022-09-15T11:11:45.194Z,2.60
2022-09-15T11:14:28.154Z,2.50
2022-09-15T11:17:10.210Z,2.10
2022-09-15T11:19:57.912Z,4.75
2022-09-15T11:22:33.456Z,2.20
2022-09-15T11:25:09.703Z,2.28
2022-09-15T11:27:46.141Z,2.40
2022-09-15T11:30:21.956Z,2.30
2022-09-15T11:32:59.207Z,3.30
2022-09-15T11:35:45.113Z,3.95
2022-09-15T11:38:29.661Z,2.60
2022-09-15T11:41:12.045Z,2.70
2022-09-15T11:43:50.662Z,4.05
2022-09-15T11:46:29.358Z,2.70
2022-09-15T11:49:06.200Z,3.20
2022-09-15T11:51:42.766Z,3.17
2022-09-15T11:54:20.333Z,3.63
2022-09-15T11:56:51.437Z,3.88
2022-09-15T11:59:32.783Z,3.75
2022-09-15T12:02:15.333Z,3.10
2022-09-15T12:05:00.875Z,2.80
2022-09-15T12:07:36.078Z,3.95
2022-09-15T12:10:18.048Z,2.92
2022-09-15T12:12:51.811Z,3.55
2022-09-15T12:15:28.056Z,3.20
2022-09-15T12:18:27.636Z,3.80
2022-09-15T12:21:09.417Z,3.20
2022-09-15T12:23:46.252Z,3.30
2022-09-15T12:29:01.029Z,3.40
2022-09-15T12:31:43.894Z,3.30
2022-09-15T12:34:39.412Z,3.20
2022-09-15T12:37:17.108Z,3.33
2022-09-15T12:39:49.087Z,3.63
2022-09-15T12:42:26.183Z,3.35
2022-09-15T12:47:38.892Z,3.58
2022-09-15T12:50:27.911Z,3.45
2022-09-15T12:53:02.514Z,3.90
2022-09-15T12:55:37.521Z,3.30
2022-09-15T12:58:12.764Z,3.55
2022-09-15T13:04:05.380Z,3.75
2022-09-15T13:06:39.179Z,3.33
2022-09-15T13:09:30.090Z,3.85
2022-09-15T13:12:01.314Z,3.25
2022-09-15T13:14:39.564Z,3.70
2022-09-15T13:17:16.730Z,3.53
2022-09-15T13:19:50.053Z,3.15
2022-09-15T13:22:31.322Z,2.88
2022-09-15T13:25:08.785Z,2.95
2022-09-15T13:27:42.146Z,3.38
2022-09-15T13:30:29.437Z,2.78
2022-09-15T13:36:00.001Z,3.05
2022-09-15T13:39:09.908Z,3.30
2022-09-15T13:42:15.115Z,2.90
2022-09-15T13:45:24.420Z,3.33
2022-09-15T13:48:08.881Z,2.78
2022-09-15T13:50:43.261Z,2.45
2022-09-15T13:53:42.977Z,2.70
2022-09-15T13:56:18.630Z,2.72
2022-09-15T13:58:56.255Z,2.60
2022-09-15T14:01:31.629Z,2.80
2022-09-15T14:04:06.847Z,3.00
2022-09-15T14:06:40.096Z,2.20
2022-09-15T14:09:15.787Z,2.35
2022-09-15T14:11:50.197Z,2.45
2022-09-15T14:14:35.976Z,2.63
2022-09-15T14:17:07.253Z,2.60
2022-09-15T14:19:39.982Z,2.25
2022-09-15T14:22:28.253Z,2.15
2022-09-15T14:25:00.780Z,2.00
2022-09-15T14:27:33.075Z,2.38
2022-09-15T14:30:11.406Z,2.45
2022-09-15T14:32:47.943Z,2.10
2022-09-15T14:35:22.289Z,2.13
2022-09-15T14:37:56.692Z,1.90
2022-09-15T14:40:31.229Z,2.38
2022-09-15T14:43:02.061Z,2.88
2022-09-15T14:45:56.456Z,2.47
2022-09-15T14:51:08.447Z,2.45
2022-09-15T14:53:43.676Z,1.98
2022-09-15T14:56:19.760Z,2.15
2022-09-15T14:58:54.343Z,2.05
2022-09-15T15:01:34.021Z,2.10
2022-09-15T15:04:10.911Z,1.92
2022-09-15T15:06:46.697Z,2.03
2022-09-15T15:09:27.466Z,1.83
2022-09-15T15:12:02.935Z,1.92
2022-09-15T15:14:34.330Z,2.20
2022-09-15T15:17:09.604Z,2.10
2022-09-15T15:19:42.846Z,2.35
2022-09-15T15:22:23.510Z,1.80
2022-09-15T15:24:56.361Z,2.17
2022-09-15T15:27:45.917Z,2.35
2022-09-15T15:30:36.698Z,2.95
2022-09-15T15:33:20.294Z,2.63
2022-09-15T15:36:03.190Z,3.10
2022-09-15T15:38:38.358Z,2.60
2022-09-15T15:41:11.232Z,2.83
2022-09-15T15:43:42.529Z,2.58
2022-09-15T15:46:13.885Z,2.60
2022-09-15T15:48:51.442Z,3.13
2022-09-15T15:51:22.612Z,2.80
2022-09-15T15:53:53.486Z,2.33
2022-09-15T15:56:27.947Z,2.60
2022-09-15T15:58:58.777Z,2.65
2022-09-15T16:01:29.756Z,2.78
2022-09-15T16:04:03.189Z,2.35
2022-09-15T16:06:35.630Z,2.70
2022-09-15T16:09:07.803Z,2.60
2022-09-15T16:11:38.686Z,2.35
2022-09-15T16:14:09.591Z,2.45
2022-09-15T16:16:41.039Z,2.60
2022-09-15T16:19:14.644Z,2.35
2022-09-15T16:21:46.187Z,2.60
2022-09-15T16:24:19.169Z,2.22
2022-09-15T16:26:53.699Z,2.80
2022-09-15T16:29:29.438Z,2.20
2022-09-15T16:32:00.600Z,2.28
2022-09-15T16:34:34.650Z,2.80
2022-09-15T16:37:05.597Z,2.10
2022-09-15T16:39:37.152Z,2.40
2022-09-15T16:42:09.286Z,2.00
2022-09-15T16:44:40.959Z,2.30
2022-09-15T16:47:12.313Z,2.20
2022-09-15T16:49:45.979Z,2.45
2022-09-15T16:52:17.075Z,2.05
2022-09-15T16:54:48.477Z,2.72
2022-09-15T16:57:20.458Z,2.20
2022-09-15T16:59:51.319Z,2.25
2022-09-15T17:02:22.731Z,2.20
2022-09-15T17:04:56.927Z,2.00
2022-09-15T17:07:28.402Z,2.10
2022-09-15T17:09:59.828Z,2.10
2022-09-15T17:12:31.106Z,1.75
2022-09-15T17:15:02.088Z,1.98
2022-09-15T17:17:33.237Z,1.88
2022-09-15T17:20:07.501Z,1.73
2022-09-15T17:22:39.116Z,1.80
2022-09-15T17:25:25.645Z,2.20
2022-09-15T17:27:57.202Z,1.73
2022-09-15T17:30:30.553Z,1.60
2022-09-15T17:33:05.334Z,2.00
2022-09-15T17:35:40.566Z,1.55
2022-09-15T17:38:11.702Z,1.75
2022-09-15T17:40:43.007Z,1.70
2022-09-15T17:43:18.694Z,1.83
2022-09-15T17:45:50.996Z,1.52
2022-09-15T17:48:24.157Z,1.88
2022-09-15T17:50:58.996Z,1.73
2022-09-15T17:53:31.894Z,1.27
2022-09-15T17:56:03.061Z,1.23
2022-09-15T17:58:33.838Z,1.40
2022-09-15T18:01:06.369Z,1.67
2022-09-15T18:03:40.254Z,1.30
2022-09-15T18:06:14.949Z,1.42
2022-09-15T18:08:46.086Z,1.70
2022-09-15T18:11:17.980Z,1.75
2022-09-15T18:13:49.432Z,1.90
2022-09-15T18:16:21.146Z,1.42
2022-09-15T18:18:52.367Z,1.70
2022-09-15T18:21:30.116Z,1.83
2022-09-15T18:24:01.778Z,1.77
2022-09-15T18:26:32.909Z,1.75
2022-09-15T18:29:04.103Z,1.58
2022-09-15T18:31:35.239Z,2.20
2022-09-15T18:34:07.006Z,2.40
2022-09-15T18:36:41.516Z,1.95
2022-09-15T18:39:12.703Z,1.95
2022-09-15T18:41:43.848Z,2.03
2022-09-15T18:44:15.465Z,1.65
2022-09-15T18:46:46.655Z,1.80
2022-09-15T18:49:17.825Z,2.67
2022-09-15T18:51:52.386Z,1.80
2022-09-15T18:54:23.575Z,1.77
2022-09-15T18:56:55.039Z,1.67
2022-09-15T18:59:26.363Z,2.53
2022-09-15T19:01:57.267Z,1.60
2022-09-15T19:04:32.706Z,2.08
2022-09-15T19:07:08.276Z,2.08
2022-09-15T19:09:40.202Z,1.70
2022-09-15T19:12:11.167Z,1.90
2022-09-15T19:14:46.059Z,1.67
2022-09-15T19:17:18.570Z,1.42
2022-09-15T19:19:49.494Z,1.58
2022-09-15T19:22:23.143Z,1.90
2022-09-15T19:24:54.598Z,1.80
2022-09-15T19:27:25.923Z,1.50
2022-09-15T19:29:57.349Z,1.83
2022-09-15T19:32:28.376Z,1.63
2022-09-15T19:34:59.389Z,1.50
2022-09-15T19:37:33.272Z,1.73
2022-09-15T19:40:04.988Z,1.77
2022-09-15T19:42:36.472Z,1.50
2022-09-15T19:45:08.229Z,1.80
2022-09-15T19:47:39.756Z,1.85
2022-09-15T19:50:13.273Z,1.80
2022-09-15T19:52:47.233Z,1.95
2022-09-15T19:55:18.618Z,2.42
2022-09-15T19:57:49.890Z,1.88
2022-09-15T20:00:20.768Z,1.80
2022-09-15T20:02:52.212Z,1.40
2022-09-15T20:05:35.151Z,1.60
2022-09-15T20:08:09.292Z,1.70
2022-09-15T20:10:42.879Z,1.98
2022-09-15T20:13:14.100Z,1.48
2022-09-15T20:15:46.115Z,1.35
2022-09-15T20:18:17.556Z,1.70
2022-09-15T20:20:48.714Z,1.60
2022-09-15T20:23:23.798Z,1.50
2022-09-15T20:26:02.370Z,1.50
2022-09-15T20:28:33.996Z,1.33
2022-09-15T20:31:06.777Z,1.75
2022-09-15T20:33:40.107Z,1.50
2022-09-15T20:36:13.641Z,1.30
2022-09-15T20:38:48.992Z,1.38
2022-09-15T20:41:22.931Z,1.27
2022-09-15T20:43:54.672Z,1.42
2022-09-15T20:46:27.271Z,1.70
2022-09-15T20:48:58.388Z,1.55
2022-09-15T20:51:32.131Z,1.60
2022-09-15T20:54:06.874Z,2.03
2022-09-15T20:56:39.669Z,1.85
2022-09-15T20:59:11.036Z,1.60
2022-09-15T21:01:43.742Z,1.05
2022-09-15T21:04:15.642Z,1.98
2022-09-15T21:06:46.443Z,1.42
2022-09-15T21:09:20.839Z,1.58
2022-09-15T21:11:53.671Z,1.45
2022-09-15T21:14:24.716Z,1.75
2022-09-15T21:16:55.545Z,1.70
2022-09-15T21:19:26.464Z,1.75
2022-09-15T21:21:58.496Z,1.73
2022-09-15T21:24:31.841Z,2.22
2022-09-15T21:27:14.882Z,1.58
2022-09-15T21:29:45.992Z,1.60
2022-09-15T21:32:17.055Z,1.70
2022-09-15T21:34:48.797Z,1.70
2022-09-15T21:37:19.889Z,1.70
2022-09-15T21:39:55.247Z,2.20
2022-09-15T21:42:27.617Z,1.77
2022-09-15T21:45:00.840Z,1.77
2022-09-15T21:47:34.565Z,1.60
2022-09-15T21:50:08.589Z,1.50
2022-09-15T21:52:39.852Z,1.40
2022-09-15T21:55:13.731Z,1.73
2022-09-15T21:57:44.903Z,1.63
2022-09-15T22:00:17.461Z,2.05
2022-09-15T22:02:48.471Z,1.67
2022-09-15T22:05:19.456Z,1.67
2022-09-15T22:07:50.611Z,2.38
2022-09-15T22:10:23.893Z,1.80
2022-09-15T22:12:55.725Z,1.73
2022-09-15T22:15:27.198Z,1.55
2022-09-15T22:17:58.218Z,1.60
2022-09-15T22:20:29.128Z,1.75
2022-09-15T22:23:02.800Z,1.92
2022-09-15T22:25:36.475Z,1.67
2022-09-15T22:28:07.268Z,1.92
2022-09-15T22:30:37.959Z,1.80
2022-09-15T22:33:08.736Z,1.33
2022-09-15T22:35:39.400Z,1.67
2022-09-15T22:38:10.096Z,1.50
2022-09-15T22:40:43.455Z,1.20
2022-09-15T22:43:14.187Z,1.50
2022-09-15T22:45:45.190Z,1.63
2022-09-15T22:48:16.476Z,1.60
2022-09-15T22:50:48.304Z,1.92
2022-09-15T22:53:19.052Z,1.52
2022-09-15T22:55:52.395Z,1.50
2022-09-15T22:58:23.284Z,1.50
2022-09-15T23:00:54.100Z,1.40
2022-09-15T23:03:24.761Z,1.50
2022-09-15T23:06:00.872Z,1.20
2022-09-15T23:08:31.881Z,1.87
2022-09-15T23:11:10.865Z,1.85
2022-09-15T23:13:42.696Z,1.88
2022-09-15T23:16:13.549Z,1.70
2022-09-15T23:18:44.416Z,1.50
2022-09-15T23:21:16.202Z,1.58
2022-09-15T23:23:49.108Z,1.95
2022-09-15T23:26:24.285Z,1.33
2022-09-15T23:28:55.287Z,1.60
2022-09-15T23:31:26.108Z,1.67
2022-09-15T23:33:57.028Z,1.60
2022-09-15T23:36:27.727Z,1.95
2022-09-15T23:38:58.600Z,1.60
2022-09-15T23:41:32.141Z,1.52
2022-09-15T23:44:03.406Z,2.00
2022-09-15T23:46:34.718Z,1.20
2022-09-15T23:49:06.006Z,1.80
2022-09-15T23:51:36.716Z,1.50
2022-09-15T23:54:07.798Z,1.50
2022-09-15T23:56:41.615Z,1.58
2022-09-15T23:59:13.101Z,1.40
